Terminal Aerodrome Forecast
Issued by NWS

Home | Current Version | Previous Version | Text Only | Print | Product List | Glossary On
Versions: 1 2 3 4 5 6 7 8 9 10 11 12 13 14 15 16 17
000
FTPQ31 PGUM 282113 RRI
TAFTPN
TAF
PTPN 282113Z 2821/2918 07008KT P6SM VCSH SCT017 SCT050 BKN120
      TEMPO 2822/2824 6SM -SHRA BKN016=

USA.gov is the U.S. government's official web portal to all federal, state and local government web resources and services.